sensor_id;sensor_type;location;lat;lon;timestamp;P1;durP1;ratioP1;P2;durP2;ratioP2
28174;SDS011;59417;44.788;10.334;2023-04-23T00:01:04;27.00;;;21.48;;
28174;SDS011;59417;44.788;10.334;2023-04-23T00:03:30;30.73;;;22.42;;
28174;SDS011;59417;44.788;10.334;2023-04-23T00:06:09;27.13;;;22.35;;
28174;SDS011;59417;44.788;10.334;2023-04-23T00:08:41;33.80;;;21.33;;
28174;SDS011;59417;44.788;10.334;2023-04-23T00:11:07;28.08;;;22.83;;
28174;SDS011;59417;44.788;10.334;2023-04-23T00:13:34;29.80;;;22.70;;
28174;SDS011;59417;44.788;10.334;2023-04-23T00:16:01;30.40;;;22.17;;
28174;SDS011;59417;44.788;10.334;2023-04-23T00:18:27;27.10;;;22.35;;
28174;SDS011;59417;44.788;10.334;2023-04-23T00:20:53;27.83;;;21.48;;
28174;SDS011;59417;44.788;10.334;2023-04-23T00:23:19;27.33;;;22.35;;
28174;SDS011;59417;44.788;10.334;2023-04-23T00:25:45;29.38;;;22.58;;
28174;SDS011;59417;44.788;10.334;2023-04-23T00:28:11;29.58;;;21.85;;
28174;SDS011;59417;44.788;10.334;2023-04-23T00:30:36;28.45;;;21.05;;
28174;SDS011;59417;44.788;10.334;2023-04-23T00:33:02;29.88;;;22.20;;
28174;SDS011;59417;44.788;10.334;2023-04-23T00:35:28;28.55;;;22.63;;
28174;SDS011;59417;44.788;10.334;2023-04-23T00:37:53;30.05;;;21.83;;
28174;SDS011;59417;44.788;10.334;2023-04-23T00:40:19;31.15;;;21.10;;
28174;SDS011;59417;44.788;10.334;2023-04-23T00:42:45;30.42;;;21.58;;
28174;SDS011;59417;44.788;10.334;2023-04-23T00:45:12;27.48;;;20.95;;
28174;SDS011;59417;44.788;10.334;2023-04-23T00:47:39;27.55;;;22.13;;
28174;SDS011;59417;44.788;10.334;2023-04-23T00:50:05;30.50;;;22.42;;
28174;SDS011;59417;44.788;10.334;2023-04-23T00:52:32;31.08;;;23.85;;
28174;SDS011;59417;44.788;10.334;2023-04-23T00:54:58;28.05;;;21.33;;
28174;SDS011;59417;44.788;10.334;2023-04-23T00:57:24;31.38;;;23.02;;
28174;SDS011;59417;44.788;10.334;2023-04-23T00:59:51;32.22;;;22.50;;
28174;SDS011;59417;44.788;10.334;2023-04-23T01:02:19;29.23;;;21.88;;
28174;SDS011;59417;44.788;10.334;2023-04-23T01:04:45;35.10;;;22.15;;
28174;SDS011;59417;44.788;10.334;2023-04-23T01:07:15;26.30;;;22.00;;
28174;SDS011;59417;44.788;10.334;2023-04-23T01:09:41;29.05;;;22.67;;
28174;SDS011;59417;44.788;10.334;2023-04-23T01:12:07;29.23;;;22.13;;
28174;SDS011;59417;44.788;10.334;2023-04-23T01:14:35;30.98;;;22.75;;
28174;SDS011;59417;44.788;10.334;2023-04-23T01:17:01;29.52;;;23.00;;
28174;SDS011;59417;44.788;10.334;2023-04-23T01:19:27;29.13;;;21.95;;
28174;SDS011;59417;44.788;10.334;2023-04-23T01:21:53;28.58;;;20.80;;
28174;SDS011;59417;44.788;10.334;2023-04-23T01:24:19;25.02;;;21.08;;
28174;SDS011;59417;44.788;10.334;2023-04-23T01:26:45;27.92;;;20.05;;
28174;SDS011;59417;44.788;10.334;2023-04-23T01:29:11;26.08;;;20.17;;
28174;SDS011;59417;44.788;10.334;2023-04-23T01:31:38;25.20;;;20.67;;
28174;SDS011;59417;44.788;10.334;2023-04-23T01:34:04;29.63;;;20.45;;
28174;SDS011;59417;44.788;10.334;2023-04-23T01:36:30;28.67;;;22.05;;
28174;SDS011;59417;44.788;10.334;2023-04-23T01:38:57;25.52;;;19.80;;
28174;SDS011;59417;44.788;10.334;2023-04-23T01:41:23;28.35;;;20.77;;
28174;SDS011;59417;44.788;10.334;2023-04-23T01:43:49;29.48;;;20.20;;
28174;SDS011;59417;44.788;10.334;2023-04-23T01:46:15;24.60;;;19.20;;
28174;SDS011;59417;44.788;10.334;2023-04-23T01:48:40;26.23;;;19.98;;
28174;SDS011;59417;44.788;10.334;2023-04-23T01:51:06;31.13;;;20.10;;
28174;SDS011;59417;44.788;10.334;2023-04-23T01:53:33;25.75;;;20.17;;
28174;SDS011;59417;44.788;10.334;2023-04-23T01:55:59;26.83;;;20.67;;
28174;SDS011;59417;44.788;10.334;2023-04-23T01:58:25;25.88;;;20.85;;
28174;SDS011;59417;44.788;10.334;2023-04-23T02:00:52;25.27;;;19.13;;
28174;SDS011;59417;44.788;10.334;2023-04-23T02:03:18;29.38;;;20.13;;
28174;SDS011;59417;44.788;10.334;2023-04-23T02:05:43;30.10;;;19.35;;
28174;SDS011;59417;44.788;10.334;2023-04-23T02:08:09;24.38;;;18.55;;
28174;SDS011;59417;44.788;10.334;2023-04-23T02:10:36;27.85;;;19.13;;
28174;SDS011;59417;44.788;10.334;2023-04-23T02:13:01;28.33;;;19.95;;
28174;SDS011;59417;44.788;10.334;2023-04-23T02:15:28;25.60;;;19.70;;
28174;SDS011;59417;44.788;10.334;2023-04-23T02:17:54;26.85;;;19.35;;
28174;SDS011;59417;44.788;10.334;2023-04-23T02:20:19;26.77;;;19.70;;
28174;SDS011;59417;44.788;10.334;2023-04-23T02:22:46;27.73;;;19.55;;
28174;SDS011;59417;44.788;10.334;2023-04-23T02:25:14;23.02;;;19.15;;
28174;SDS011;59417;44.788;10.334;2023-04-23T02:27:41;25.55;;;19.10;;
28174;SDS011;59417;44.788;10.334;2023-04-23T02:30:07;24.65;;;17.88;;
28174;SDS011;59417;44.788;10.334;2023-04-23T02:32:35;26.10;;;18.05;;
28174;SDS011;59417;44.788;10.334;2023-04-23T02:35:02;20.63;;;16.42;;
28174;SDS011;59417;44.788;10.334;2023-04-23T02:37:31;19.80;;;16.52;;
28174;SDS011;59417;44.788;10.334;2023-04-23T02:39:57;21.73;;;17.80;;
28174;SDS011;59417;44.788;10.334;2023-04-23T02:42:23;26.58;;;18.42;;
28174;SDS011;59417;44.788;10.334;2023-04-23T02:44:48;24.65;;;18.15;;
28174;SDS011;59417;44.788;10.334;2023-04-23T02:47:14;29.25;;;18.17;;
28174;SDS011;59417;44.788;10.334;2023-04-23T02:49:40;25.10;;;17.38;;
28174;SDS011;59417;44.788;10.334;2023-04-23T02:52:05;24.95;;;18.25;;
28174;SDS011;59417;44.788;10.334;2023-04-23T02:54:31;20.65;;;17.15;;
28174;SDS011;59417;44.788;10.334;2023-04-23T02:56:57;21.05;;;17.05;;
28174;SDS011;59417;44.788;10.334;2023-04-23T02:59:23;21.67;;;17.25;;
28174;SDS011;59417;44.788;10.334;2023-04-23T03:01:49;21.13;;;17.17;;
28174;SDS011;59417;44.788;10.334;2023-04-23T03:04:16;22.75;;;17.42;;
28174;SDS011;59417;44.788;10.334;2023-04-23T03:06:43;19.67;;;16.35;;
28174;SDS011;59417;44.788;10.334;2023-04-23T03:09:08;21.63;;;17.15;;
28174;SDS011;59417;44.788;10.334;2023-04-23T03:11:35;23.95;;;17.55;;
28174;SDS011;59417;44.788;10.334;2023-04-23T03:14:00;21.95;;;17.15;;
28174;SDS011;59417;44.788;10.334;2023-04-23T03:16:27;22.67;;;17.15;;
28174;SDS011;59417;44.788;10.334;2023-04-23T03:18:54;23.02;;;16.08;;
28174;SDS011;59417;44.788;10.334;2023-04-23T03:21:20;22.40;;;16.38;;
28174;SDS011;59417;44.788;10.334;2023-04-23T03:23:45;23.70;;;16.42;;
28174;SDS011;59417;44.788;10.334;2023-04-23T03:26:11;21.90;;;15.60;;
28174;SDS011;59417;44.788;10.334;2023-04-23T03:28:37;20.73;;;16.20;;
28174;SDS011;59417;44.788;10.334;2023-04-23T03:31:02;20.80;;;15.85;;
28174;SDS011;59417;44.788;10.334;2023-04-23T03:33:28;20.90;;;16.27;;
28174;SDS011;59417;44.788;10.334;2023-04-23T03:35:54;23.02;;;15.75;;
28174;SDS011;59417;44.788;10.334;2023-04-23T03:38:25;24.73;;;16.42;;
28174;SDS011;59417;44.788;10.334;2023-04-23T03:40:53;22.83;;;17.08;;
28174;SDS011;59417;44.788;10.334;2023-04-23T03:43:20;21.35;;;17.05;;
28174;SDS011;59417;44.788;10.334;2023-04-23T03:46:03;21.92;;;17.27;;
28174;SDS011;59417;44.788;10.334;2023-04-23T03:48:33;22.15;;;17.92;;
28174;SDS011;59417;44.788;10.334;2023-04-23T03:51:03;19.80;;;16.52;;
28174;SDS011;59417;44.788;10.334;2023-04-23T03:53:36;22.63;;;18.30;;
28174;SDS011;59417;44.788;10.334;2023-04-23T03:56:22;22.88;;;17.65;;
28174;SDS011;59417;44.788;10.334;2023-04-23T03:58:57;22.45;;;17.30;;
28174;SDS011;59417;44.788;10.334;2023-04-23T04:01:23;21.27;;;16.25;;
28174;SDS011;59417;44.788;10.334;2023-04-23T04:03:49;24.60;;;16.83;;
28174;SDS011;59417;44.788;10.334;2023-04-23T04:06:14;24.98;;;17.23;;
28174;SDS011;59417;44.788;10.334;2023-04-23T04:08:40;22.52;;;16.15;;
28174;SDS011;59417;44.788;10.334;2023-04-23T04:11:05;20.40;;;16.23;;
28174;SDS011;59417;44.788;10.334;2023-04-23T04:13:32;22.05;;;16.10;;
28174;SDS011;59417;44.788;10.334;2023-04-23T04:15:58;20.52;;;15.25;;
28174;SDS011;59417;44.788;10.334;2023-04-23T04:18:23;19.55;;;15.32;;
28174;SDS011;59417;44.788;10.334;2023-04-23T04:20:49;16.17;;;13.02;;
28174;SDS011;59417;44.788;10.334;2023-04-23T04:23:16;16.92;;;13.40;;
28174;SDS011;59417;44.788;10.334;2023-04-23T04:25:41;15.25;;;12.88;;
28174;SDS011;59417;44.788;10.334;2023-04-23T04:28:07;18.23;;;13.48;;
28174;SDS011;59417;44.788;10.334;2023-04-23T04:30:35;18.90;;;14.52;;
28174;SDS011;59417;44.788;10.334;2023-04-23T04:33:02;20.17;;;14.88;;
28174;SDS011;59417;44.788;10.334;2023-04-23T04:35:28;18.23;;;13.48;;
28174;SDS011;59417;44.788;10.334;2023-04-23T04:37:53;20.27;;;15.05;;
28174;SDS011;59417;44.788;10.334;2023-04-23T04:40:19;16.05;;;12.85;;
28174;SDS011;59417;44.788;10.334;2023-04-23T04:42:45;20.27;;;14.68;;
28174;SDS011;59417;44.788;10.334;2023-04-23T04:45:11;20.25;;;15.15;;
28174;SDS011;59417;44.788;10.334;2023-04-23T04:47:37;19.50;;;14.38;;
28174;SDS011;59417;44.788;10.334;2023-04-23T04:50:03;18.27;;;14.13;;
28174;SDS011;59417;44.788;10.334;2023-04-23T04:52:29;23.95;;;16.52;;
28174;SDS011;59417;44.788;10.334;2023-04-23T04:54:55;22.27;;;16.05;;
28174;SDS011;59417;44.788;10.334;2023-04-23T04:57:21;21.23;;;16.95;;
28174;SDS011;59417;44.788;10.334;2023-04-23T04:59:47;24.05;;;16.88;;
28174;SDS011;59417;44.788;10.334;2023-04-23T05:02:14;22.65;;;16.88;;
28174;SDS011;59417;44.788;10.334;2023-04-23T05:04:40;24.10;;;17.48;;
28174;SDS011;59417;44.788;10.334;2023-04-23T05:07:06;21.80;;;16.83;;
28174;SDS011;59417;44.788;10.334;2023-04-23T05:09:31;21.63;;;16.67;;
28174;SDS011;59417;44.788;10.334;2023-04-23T05:11:57;21.83;;;16.02;;
28174;SDS011;59417;44.788;10.334;2023-04-23T05:14:23;26.92;;;18.30;;
28174;SDS011;59417;44.788;10.334;2023-04-23T05:16:50;28.33;;;17.77;;
28174;SDS011;59417;44.788;10.334;2023-04-23T05:19:17;28.58;;;18.02;;
28174;SDS011;59417;44.788;10.334;2023-04-23T05:21:43;22.90;;;16.67;;
28174;SDS011;59417;44.788;10.334;2023-04-23T05:24:09;19.23;;;16.45;;
28174;SDS011;59417;44.788;10.334;2023-04-23T05:26:34;20.17;;;16.17;;
28174;SDS011;59417;44.788;10.334;2023-04-23T05:29:00;21.80;;;16.17;;
28174;SDS011;59417;44.788;10.334;2023-04-23T05:31:26;27.40;;;16.60;;
28174;SDS011;59417;44.788;10.334;2023-04-23T05:33:52;24.15;;;18.17;;
28174;SDS011;59417;44.788;10.334;2023-04-23T05:36:17;21.38;;;16.38;;
28174;SDS011;59417;44.788;10.334;2023-04-23T05:38:43;20.65;;;16.88;;
28174;SDS011;59417;44.788;10.334;2023-04-23T05:41:09;21.55;;;16.65;;
28174;SDS011;59417;44.788;10.334;2023-04-23T05:43:35;24.27;;;17.27;;
28174;SDS011;59417;44.788;10.334;2023-04-23T05:46:00;20.30;;;16.05;;
28174;SDS011;59417;44.788;10.334;2023-04-23T05:48:28;21.55;;;17.20;;
28174;SDS011;59417;44.788;10.334;2023-04-23T05:50:54;24.58;;;18.00;;
28174;SDS011;59417;44.788;10.334;2023-04-23T05:53:20;23.60;;;17.05;;
28174;SDS011;59417;44.788;10.334;2023-04-23T05:55:45;21.65;;;18.08;;
28174;SDS011;59417;44.788;10.334;2023-04-23T05:58:11;22.67;;;16.25;;
28174;SDS011;59417;44.788;10.334;2023-04-23T06:00:37;22.05;;;15.85;;
28174;SDS011;59417;44.788;10.334;2023-04-23T06:03:04;18.60;;;15.77;;
28174;SDS011;59417;44.788;10.334;2023-04-23T06:05:31;20.77;;;15.65;;
28174;SDS011;59417;44.788;10.334;2023-04-23T06:07:57;21.70;;;17.25;;
28174;SDS011;59417;44.788;10.334;2023-04-23T06:10:22;23.58;;;16.20;;
28174;SDS011;59417;44.788;10.334;2023-04-23T06:12:48;21.58;;;15.45;;
28174;SDS011;59417;44.788;10.334;2023-04-23T06:15:14;18.75;;;14.63;;
28174;SDS011;59417;44.788;10.334;2023-04-23T06:17:39;22.88;;;15.38;;
28174;SDS011;59417;44.788;10.334;2023-04-23T06:20:05;17.13;;;13.93;;
28174;SDS011;59417;44.788;10.334;2023-04-23T06:22:33;17.55;;;13.75;;
28174;SDS011;59417;44.788;10.334;2023-04-23T06:24:58;19.38;;;14.18;;
28174;SDS011;59417;44.788;10.334;2023-04-23T06:27:24;18.63;;;14.02;;
28174;SDS011;59417;44.788;10.334;2023-04-23T06:29:54;20.50;;;13.13;;
28174;SDS011;59417;44.788;10.334;2023-04-23T06:32:21;16.92;;;12.70;;
28174;SDS011;59417;44.788;10.334;2023-04-23T06:34:47;13.75;;;11.55;;
28174;SDS011;59417;44.788;10.334;2023-04-23T06:37:13;13.90;;;11.77;;
28174;SDS011;59417;44.788;10.334;2023-04-23T06:39:38;16.15;;;11.70;;
28174;SDS011;59417;44.788;10.334;2023-04-23T06:42:04;15.10;;;12.20;;
28174;SDS011;59417;44.788;10.334;2023-04-23T06:44:43;19.05;;;12.75;;
28174;SDS011;59417;44.788;10.334;2023-04-23T06:47:10;13.82;;;10.20;;
28174;SDS011;59417;44.788;10.334;2023-04-23T06:49:36;12.27;;;10.98;;
28174;SDS011;59417;44.788;10.334;2023-04-23T06:52:02;14.60;;;11.23;;
28174;SDS011;59417;44.788;10.334;2023-04-23T06:54:27;14.52;;;10.90;;
28174;SDS011;59417;44.788;10.334;2023-04-23T06:56:53;13.23;;;10.55;;
28174;SDS011;59417;44.788;10.334;2023-04-23T06:59:18;10.30;;;8.15;;
28174;SDS011;59417;44.788;10.334;2023-04-23T07:01:48;12.60;;;9.52;;
28174;SDS011;59417;44.788;10.334;2023-04-23T07:04:13;9.73;;;8.73;;
28174;SDS011;59417;44.788;10.334;2023-04-23T07:06:40;11.57;;;8.02;;
28174;SDS011;59417;44.788;10.334;2023-04-23T07:09:05;10.32;;;7.72;;
28174;SDS011;59417;44.788;10.334;2023-04-23T07:11:31;11.65;;;8.30;;
28174;SDS011;59417;44.788;10.334;2023-04-23T07:13:59;11.13;;;7.88;;
28174;SDS011;59417;44.788;10.334;2023-04-23T07:16:24;8.43;;;6.95;;
28174;SDS011;59417;44.788;10.334;2023-04-23T07:18:53;11.80;;;7.72;;
28174;SDS011;59417;44.788;10.334;2023-04-23T07:21:19;10.38;;;7.43;;
28174;SDS011;59417;44.788;10.334;2023-04-23T07:23:45;12.68;;;8.50;;
28174;SDS011;59417;44.788;10.334;2023-04-23T07:26:10;9.45;;;8.18;;
28174;SDS011;59417;44.788;10.334;2023-04-23T07:28:36;10.32;;;9.07;;
28174;SDS011;59417;44.788;10.334;2023-04-23T07:31:02;11.70;;;9.98;;
28174;SDS011;59417;44.788;10.334;2023-04-23T07:33:28;12.43;;;9.82;;
28174;SDS011;59417;44.788;10.334;2023-04-23T07:35:54;13.57;;;9.45;;
28174;SDS011;59417;44.788;10.334;2023-04-23T07:38:19;14.52;;;10.98;;
28174;SDS011;59417;44.788;10.334;2023-04-23T07:40:45;13.45;;;10.98;;
28174;SDS011;59417;44.788;10.334;2023-04-23T07:43:11;14.35;;;10.52;;
28174;SDS011;59417;44.788;10.334;2023-04-23T07:45:38;13.50;;;10.75;;
28174;SDS011;59417;44.788;10.334;2023-04-23T07:48:04;14.43;;;10.20;;
28174;SDS011;59417;44.788;10.334;2023-04-23T07:50:30;16.25;;;11.75;;
28174;SDS011;59417;44.788;10.334;2023-04-23T07:52:55;13.55;;;11.18;;
28174;SDS011;59417;44.788;10.334;2023-04-23T07:55:21;19.35;;;11.45;;
28174;SDS011;59417;44.788;10.334;2023-04-23T07:57:46;13.38;;;11.88;;
28174;SDS011;59417;44.788;10.334;2023-04-23T08:00:12;12.85;;;10.57;;
28174;SDS011;59417;44.788;10.334;2023-04-23T08:02:38;14.90;;;11.73;;
28174;SDS011;59417;44.788;10.334;2023-04-23T08:05:04;14.88;;;12.05;;
28174;SDS011;59417;44.788;10.334;2023-04-23T08:07:30;15.70;;;12.10;;
28174;SDS011;59417;44.788;10.334;2023-04-23T08:09:56;17.00;;;12.40;;
28174;SDS011;59417;44.788;10.334;2023-04-23T08:12:27;15.60;;;10.82;;
28174;SDS011;59417;44.788;10.334;2023-04-23T08:14:53;15.75;;;12.00;;
28174;SDS011;59417;44.788;10.334;2023-04-23T08:17:23;18.45;;;13.85;;
28174;SDS011;59417;44.788;10.334;2023-04-23T08:19:49;20.83;;;15.60;;
28174;SDS011;59417;44.788;10.334;2023-04-23T08:22:14;18.23;;;15.07;;
28174;SDS011;59417;44.788;10.334;2023-04-23T08:24:42;18.83;;;14.63;;
28174;SDS011;59417;44.788;10.334;2023-04-23T08:27:09;21.77;;;15.63;;
28174;SDS011;59417;44.788;10.334;2023-04-23T08:29:35;18.33;;;13.88;;
28174;SDS011;59417;44.788;10.334;2023-04-23T08:32:01;20.95;;;15.35;;
28174;SDS011;59417;44.788;10.334;2023-04-23T08:34:26;20.90;;;15.63;;
28174;SDS011;59417;44.788;10.334;2023-04-23T08:36:52;19.30;;;15.27;;
28174;SDS011;59417;44.788;10.334;2023-04-23T08:39:18;20.50;;;14.88;;
28174;SDS011;59417;44.788;10.334;2023-04-23T08:41:44;18.00;;;14.77;;
28174;SDS011;59417;44.788;10.334;2023-04-23T08:44:23;19.88;;;15.48;;
28174;SDS011;59417;44.788;10.334;2023-04-23T08:46:50;20.10;;;15.68;;
28174;SDS011;59417;44.788;10.334;2023-04-23T08:49:18;18.88;;;14.82;;
28174;SDS011;59417;44.788;10.334;2023-04-23T08:51:48;19.40;;;13.45;;
28174;SDS011;59417;44.788;10.334;2023-04-23T08:54:17;14.20;;;11.43;;
28174;SDS011;59417;44.788;10.334;2023-04-23T08:56:46;16.38;;;12.13;;
28174;SDS011;59417;44.788;10.334;2023-04-23T08:59:12;18.05;;;13.38;;
28174;SDS011;59417;44.788;10.334;2023-04-23T09:01:39;13.90;;;11.43;;
28174;SDS011;59417;44.788;10.334;2023-04-23T09:04:05;16.67;;;12.13;;
28174;SDS011;59417;44.788;10.334;2023-04-23T09:06:32;20.08;;;13.85;;
28174;SDS011;59417;44.788;10.334;2023-04-23T09:08:58;16.27;;;12.10;;
28174;SDS011;59417;44.788;10.334;2023-04-23T09:11:26;18.90;;;13.50;;
28174;SDS011;59417;44.788;10.334;2023-04-23T09:13:53;19.95;;;13.70;;
28174;SDS011;59417;44.788;10.334;2023-04-23T09:16:20;16.70;;;12.30;;
28174;SDS011;59417;44.788;10.334;2023-04-23T09:18:46;16.05;;;11.77;;
28174;SDS011;59417;44.788;10.334;2023-04-23T09:21:13;16.10;;;11.85;;
28174;SDS011;59417;44.788;10.334;2023-04-23T09:23:39;17.52;;;12.43;;
28174;SDS011;59417;44.788;10.334;2023-04-23T09:26:05;15.25;;;12.15;;
28174;SDS011;59417;44.788;10.334;2023-04-23T09:28:35;16.30;;;11.95;;
28174;SDS011;59417;44.788;10.334;2023-04-23T09:31:03;15.07;;;11.15;;
28174;SDS011;59417;44.788;10.334;2023-04-23T09:33:30;15.73;;;11.93;;
28174;SDS011;59417;44.788;10.334;2023-04-23T09:36:04;15.25;;;12.63;;
28174;SDS011;59417;44.788;10.334;2023-04-23T09:38:42;12.70;;;10.82;;
28174;SDS011;59417;44.788;10.334;2023-04-23T09:41:23;19.52;;;13.57;;
28174;SDS011;59417;44.788;10.334;2023-04-23T09:43:53;16.92;;;12.85;;
28174;SDS011;59417;44.788;10.334;2023-04-23T09:48:59;15.48;;;11.90;;
28174;SDS011;59417;44.788;10.334;2023-04-23T09:51:31;23.17;;;12.23;;
28174;SDS011;59417;44.788;10.334;2023-04-23T09:54:00;16.17;;;11.70;;
28174;SDS011;59417;44.788;10.334;2023-04-23T09:56:27;16.65;;;11.07;;
28174;SDS011;59417;44.788;10.334;2023-04-23T09:58:52;15.98;;;10.57;;
28174;SDS011;59417;44.788;10.334;2023-04-23T10:01:18;15.52;;;9.73;;
28174;SDS011;59417;44.788;10.334;2023-04-23T10:03:52;10.52;;;8.27;;
28174;SDS011;59417;44.788;10.334;2023-04-23T10:06:18;12.93;;;10.50;;
28174;SDS011;59417;44.788;10.334;2023-04-23T10:08:43;13.68;;;9.57;;
28174;SDS011;59417;44.788;10.334;2023-04-23T10:11:11;11.90;;;8.68;;
28174;SDS011;59417;44.788;10.334;2023-04-23T10:13:36;13.23;;;10.95;;
28174;SDS011;59417;44.788;10.334;2023-04-23T10:16:03;18.88;;;9.57;;
28174;SDS011;59417;44.788;10.334;2023-04-23T10:18:29;11.50;;;8.43;;
28174;SDS011;59417;44.788;10.334;2023-04-23T10:20:57;10.32;;;8.23;;
28174;SDS011;59417;44.788;10.334;2023-04-23T10:23:22;9.60;;;7.53;;
28174;SDS011;59417;44.788;10.334;2023-04-23T10:25:49;11.73;;;7.97;;
28174;SDS011;59417;44.788;10.334;2023-04-23T10:28:19;8.30;;;6.90;;
28174;SDS011;59417;44.788;10.334;2023-04-23T10:30:52;11.85;;;8.23;;
28174;SDS011;59417;44.788;10.334;2023-04-23T10:33:18;11.07;;;8.15;;
28174;SDS011;59417;44.788;10.334;2023-04-23T10:35:45;8.25;;;6.45;;
28174;SDS011;59417;44.788;10.334;2023-04-23T10:38:12;7.75;;;5.68;;
28174;SDS011;59417;44.788;10.334;2023-04-23T10:40:39;6.18;;;4.68;;
28174;SDS011;59417;44.788;10.334;2023-04-23T10:43:10;8.90;;;6.20;;
28174;SDS011;59417;44.788;10.334;2023-04-23T10:45:36;12.05;;;7.15;;
28174;SDS011;59417;44.788;10.334;2023-04-23T10:48:02;11.20;;;7.82;;
28174;SDS011;59417;44.788;10.334;2023-04-23T10:50:29;8.68;;;5.70;;
28174;SDS011;59417;44.788;10.334;2023-04-23T10:52:58;13.40;;;5.18;;
28174;SDS011;59417;44.788;10.334;2023-04-23T10:55:26;7.30;;;5.57;;
28174;SDS011;59417;44.788;10.334;2023-04-23T10:57:54;8.90;;;6.95;;
28174;SDS011;59417;44.788;10.334;2023-04-23T11:00:28;8.32;;;6.10;;
28174;SDS011;59417;44.788;10.334;2023-04-23T11:05:56;10.75;;;7.05;;
28174;SDS011;59417;44.788;10.334;2023-04-23T11:08:25;12.60;;;7.35;;
28174;SDS011;59417;44.788;10.334;2023-04-23T11:10:57;9.82;;;5.90;;
28174;SDS011;59417;44.788;10.334;2023-04-23T11:13:24;5.82;;;5.13;;
28174;SDS011;59417;44.788;10.334;2023-04-23T11:18:57;11.15;;;5.75;;
28174;SDS011;59417;44.788;10.334;2023-04-23T11:24:23;7.20;;;6.03;;
28174;SDS011;59417;44.788;10.334;2023-04-23T11:26:52;7.07;;;4.75;;
28174;SDS011;59417;44.788;10.334;2023-04-23T11:29:19;10.38;;;6.15;;
28174;SDS011;59417;44.788;10.334;2023-04-23T11:31:49;9.38;;;6.65;;
28174;SDS011;59417;44.788;10.334;2023-04-23T11:34:16;6.55;;;5.30;;
28174;SDS011;59417;44.788;10.334;2023-04-23T11:36:42;8.32;;;5.35;;
28174;SDS011;59417;44.788;10.334;2023-04-23T11:39:08;8.35;;;4.80;;
28174;SDS011;59417;44.788;10.334;2023-04-23T11:41:37;8.05;;;4.88;;
28174;SDS011;59417;44.788;10.334;2023-04-23T11:44:03;11.18;;;6.57;;
28174;SDS011;59417;44.788;10.334;2023-04-23T11:46:29;7.40;;;5.15;;
28174;SDS011;59417;44.788;10.334;2023-04-23T11:48:55;6.85;;;4.78;;
28174;SDS011;59417;44.788;10.334;2023-04-23T11:51:24;8.10;;;5.10;;
28174;SDS011;59417;44.788;10.334;2023-04-23T11:53:51;9.07;;;5.82;;
28174;SDS011;59417;44.788;10.334;2023-04-23T11:56:17;11.15;;;4.72;;
28174;SDS011;59417;44.788;10.334;2023-04-23T11:58:44;6.00;;;4.07;;
28174;SDS011;59417;44.788;10.334;2023-04-23T12:01:10;10.00;;;4.97;;
28174;SDS011;59417;44.788;10.334;2023-04-23T12:03:39;7.28;;;4.15;;
28174;SDS011;59417;44.788;10.334;2023-04-23T12:06:05;6.45;;;4.22;;
28174;SDS011;59417;44.788;10.334;2023-04-23T12:08:32;7.38;;;4.20;;
28174;SDS011;59417;44.788;10.334;2023-04-23T12:11:04;6.72;;;4.25;;
28174;SDS011;59417;44.788;10.334;2023-04-23T12:13:31;5.97;;;4.57;;
28174;SDS011;59417;44.788;10.334;2023-04-23T12:15:58;5.72;;;4.10;;
28174;SDS011;59417;44.788;10.334;2023-04-23T12:18:26;6.75;;;4.85;;
28174;SDS011;59417;44.788;10.334;2023-04-23T12:20:56;8.02;;;5.43;;
28174;SDS011;59417;44.788;10.334;2023-04-23T12:23:29;8.63;;;5.65;;
28174;SDS011;59417;44.788;10.334;2023-04-23T12:25:54;5.93;;;5.32;;
28174;SDS011;59417;44.788;10.334;2023-04-23T12:28:24;7.70;;;5.75;;
28174;SDS011;59417;44.788;10.334;2023-04-23T12:30:50;8.15;;;4.97;;
28174;SDS011;59417;44.788;10.334;2023-04-23T12:33:17;5.60;;;5.00;;
28174;SDS011;59417;44.788;10.334;2023-04-23T12:35:43;7.38;;;4.50;;
28174;SDS011;59417;44.788;10.334;2023-04-23T12:38:23;5.47;;;3.97;;
28174;SDS011;59417;44.788;10.334;2023-04-23T12:40:50;4.60;;;4.00;;
28174;SDS011;59417;44.788;10.334;2023-04-23T12:43:20;8.73;;;3.60;;
28174;SDS011;59417;44.788;10.334;2023-04-23T12:45:46;5.90;;;3.58;;
28174;SDS011;59417;44.788;10.334;2023-04-23T12:48:12;3.42;;;3.03;;
28174;SDS011;59417;44.788;10.334;2023-04-23T12:50:38;6.60;;;4.32;;
28174;SDS011;59417;44.788;10.334;2023-04-23T12:53:04;4.32;;;3.40;;
28174;SDS011;59417;44.788;10.334;2023-04-23T12:55:30;6.15;;;4.40;;
28174;SDS011;59417;44.788;10.334;2023-04-23T12:57:56;5.80;;;4.68;;
28174;SDS011;59417;44.788;10.334;2023-04-23T13:00:23;7.53;;;4.05;;
28174;SDS011;59417;44.788;10.334;2023-04-23T13:02:49;5.25;;;4.20;;
28174;SDS011;59417;44.788;10.334;2023-04-23T13:05:14;6.43;;;3.85;;
28174;SDS011;59417;44.788;10.334;2023-04-23T13:07:40;8.23;;;4.15;;
28174;SDS011;59417;44.788;10.334;2023-04-23T13:10:07;6.72;;;3.95;;
28174;SDS011;59417;44.788;10.334;2023-04-23T13:12:33;7.78;;;4.45;;
28174;SDS011;59417;44.788;10.334;2023-04-23T13:14:59;6.80;;;4.70;;
28174;SDS011;59417;44.788;10.334;2023-04-23T13:17:24;5.53;;;3.88;;
28174;SDS011;59417;44.788;10.334;2023-04-23T13:19:54;9.18;;;4.40;;
28174;SDS011;59417;44.788;10.334;2023-04-23T13:22:20;7.45;;;3.38;;
28174;SDS011;59417;44.788;10.334;2023-04-23T13:24:46;5.57;;;3.85;;
28174;SDS011;59417;44.788;10.334;2023-04-23T13:27:12;7.95;;;3.70;;
28174;SDS011;59417;44.788;10.334;2023-04-23T13:29:39;5.40;;;4.10;;
28174;SDS011;59417;44.788;10.334;2023-04-23T13:32:05;6.30;;;3.97;;
28174;SDS011;59417;44.788;10.334;2023-04-23T13:34:31;6.63;;;4.07;;
28174;SDS011;59417;44.788;10.334;2023-04-23T13:36:58;4.50;;;3.20;;
28174;SDS011;59417;44.788;10.334;2023-04-23T13:39:24;6.20;;;3.95;;
28174;SDS011;59417;44.788;10.334;2023-04-23T13:41:50;6.90;;;3.47;;
28174;SDS011;59417;44.788;10.334;2023-04-23T13:44:16;5.93;;;4.28;;
28174;SDS011;59417;44.788;10.334;2023-04-23T13:46:41;9.02;;;5.03;;
28174;SDS011;59417;44.788;10.334;2023-04-23T13:49:07;8.07;;;5.05;;
28174;SDS011;59417;44.788;10.334;2023-04-23T13:51:33;7.05;;;4.57;;
28174;SDS011;59417;44.788;10.334;2023-04-23T13:53:59;6.85;;;4.13;;
28174;SDS011;59417;44.788;10.334;2023-04-23T13:56:25;5.38;;;4.55;;
28174;SDS011;59417;44.788;10.334;2023-04-23T13:58:51;7.90;;;5.65;;
28174;SDS011;59417;44.788;10.334;2023-04-23T14:01:17;5.68;;;4.78;;
28174;SDS011;59417;44.788;10.334;2023-04-23T14:03:43;6.45;;;4.60;;
28174;SDS011;59417;44.788;10.334;2023-04-23T14:06:09;9.07;;;5.05;;
28174;SDS011;59417;44.788;10.334;2023-04-23T14:08:35;10.02;;;5.38;;
28174;SDS011;59417;44.788;10.334;2023-04-23T14:11:02;8.73;;;5.22;;
28174;SDS011;59417;44.788;10.334;2023-04-23T14:13:31;4.50;;;4.10;;
28174;SDS011;59417;44.788;10.334;2023-04-23T14:15:57;6.85;;;4.85;;
28174;SDS011;59417;44.788;10.334;2023-04-23T14:18:23;5.75;;;4.45;;
28174;SDS011;59417;44.788;10.334;2023-04-23T14:20:49;5.38;;;4.20;;
28174;SDS011;59417;44.788;10.334;2023-04-23T14:25:41;5.50;;;4.32;;
28174;SDS011;59417;44.788;10.334;2023-04-23T14:30:54;7.18;;;4.55;;